sensor_id;sensor_type;location;lat;lon;timestamp;temperature;humidity
9157;DHT22;4613;48.392;9.998;2023-05-10T00:00:45;14.10;99.90
9157;DHT22;4613;48.392;9.998;2023-05-10T00:03:35;14.20;99.90
9157;DHT22;4613;48.392;9.998;2023-05-10T00:06:25;14.20;99.90
9157;DHT22;4613;48.392;9.998;2023-05-10T00:09:14;14.20;99.90
9157;DHT22;4613;48.392;9.998;2023-05-10T00:12:03;14.50;99.90
9157;DHT22;4613;48.392;9.998;2023-05-10T00:14:52;14.50;99.90
9157;DHT22;4613;48.392;9.998;2023-05-10T00:17:42;14.30;99.90
9157;DHT22;4613;48.392;9.998;2023-05-10T00:20:36;14.40;99.90
9157;DHT22;4613;48.392;9.998;2023-05-10T00:23:25;14.00;99.90
9157;DHT22;4613;48.392;9.998;2023-05-10T00:26:14;13.80;99.90
9157;DHT22;4613;48.392;9.998;2023-05-10T00:29:07;14.10;99.90
9157;DHT22;4613;48.392;9.998;2023-05-10T00:31:56;14.10;99.90
9157;DHT22;4613;48.392;9.998;2023-05-10T00:34:46;14.10;99.90
9157;DHT22;4613;48.392;9.998;2023-05-10T00:37:35;14.00;99.90
9157;DHT22;4613;48.392;9.998;2023-05-10T00:40:24;14.00;99.90
9157;DHT22;4613;48.392;9.998;2023-05-10T00:43:19;13.80;99.90
9157;DHT22;4613;48.392;9.998;2023-05-10T00:46:10;13.80;99.90
9157;DHT22;4613;48.392;9.998;2023-05-10T00:49:01;13.80;99.90
9157;DHT22;4613;48.392;9.998;2023-05-10T00:51:50;13.80;99.90
9157;DHT22;4613;48.392;9.998;2023-05-10T00:54:40;14.10;99.90
9157;DHT22;4613;48.392;9.998;2023-05-10T00:57:29;14.00;99.90
9157;DHT22;4613;48.392;9.998;2023-05-10T01:00:19;13.80;99.90
9157;DHT22;4613;48.392;9.998;2023-05-10T01:03:10;13.80;99.90
9157;DHT22;4613;48.392;9.998;2023-05-10T01:06:01;13.70;99.90
9157;DHT22;4613;48.392;9.998;2023-05-10T01:08:51;13.70;99.90
9157;DHT22;4613;48.392;9.998;2023-05-10T01:11:40;13.70;99.90
9157;DHT22;4613;48.392;9.998;2023-05-10T01:14:30;13.80;99.90
9157;DHT22;4613;48.392;9.998;2023-05-10T01:17:21;13.90;99.90
9157;DHT22;4613;48.392;9.998;2023-05-10T01:20:11;13.70;99.90
9157;DHT22;4613;48.392;9.998;2023-05-10T01:23:15;13.80;99.90
9157;DHT22;4613;48.392;9.998;2023-05-10T01:33:33;13.50;99.90
9157;DHT22;4613;48.392;9.998;2023-05-10T01:36:31;13.70;99.90
9157;DHT22;4613;48.392;9.998;2023-05-10T01:42:23;14.00;99.90
9157;DHT22;4613;48.392;9.998;2023-05-10T01:45:27;13.80;99.90
9157;DHT22;4613;48.392;9.998;2023-05-10T01:48:18;13.80;99.90
9157;DHT22;4613;48.392;9.998;2023-05-10T01:51:10;13.90;99.90
9157;DHT22;4613;48.392;9.998;2023-05-10T01:54:02;13.90;99.90
9157;DHT22;4613;48.392;9.998;2023-05-10T01:57:05;13.80;99.90
9157;DHT22;4613;48.392;9.998;2023-05-10T01:59:56;13.70;99.90
9157;DHT22;4613;48.392;9.998;2023-05-10T02:02:47;13.80;99.90
9157;DHT22;4613;48.392;9.998;2023-05-10T02:05:38;13.90;99.90
9157;DHT22;4613;48.392;9.998;2023-05-10T02:08:29;14.10;99.90
9157;DHT22;4613;48.392;9.998;2023-05-10T02:11:20;14.10;99.90
9157;DHT22;4613;48.392;9.998;2023-05-10T02:14:11;14.20;99.90
9157;DHT22;4613;48.392;9.998;2023-05-10T02:17:02;14.10;99.90
9157;DHT22;4613;48.392;9.998;2023-05-10T02:19:54;14.10;99.90
9157;DHT22;4613;48.392;9.998;2023-05-10T02:22:45;14.20;99.90
9157;DHT22;4613;48.392;9.998;2023-05-10T02:25:37;14.00;99.90
9157;DHT22;4613;48.392;9.998;2023-05-10T02:28:28;14.00;99.90
9157;DHT22;4613;48.392;9.998;2023-05-10T02:31:19;13.80;99.90
9157;DHT22;4613;48.392;9.998;2023-05-10T02:34:10;13.90;99.90
9157;DHT22;4613;48.392;9.998;2023-05-10T02:36:59;13.90;99.90
9157;DHT22;4613;48.392;9.998;2023-05-10T02:39:53;13.70;99.90
9157;DHT22;4613;48.392;9.998;2023-05-10T02:42:44;13.70;99.90
9157;DHT22;4613;48.392;9.998;2023-05-10T02:45:35;13.70;99.90
9157;DHT22;4613;48.392;9.998;2023-05-10T02:48:25;13.60;99.90
9157;DHT22;4613;48.392;9.998;2023-05-10T02:51:16;13.60;99.90
9157;DHT22;4613;48.392;9.998;2023-05-10T02:54:11;13.70;99.90
9157;DHT22;4613;48.392;9.998;2023-05-10T02:57:04;13.80;99.90
9157;DHT22;4613;48.392;9.998;2023-05-10T02:59:54;13.70;99.90
9157;DHT22;4613;48.392;9.998;2023-05-10T03:02:44;13.60;99.90
9157;DHT22;4613;48.392;9.998;2023-05-10T03:05:33;13.70;99.90
9157;DHT22;4613;48.392;9.998;2023-05-10T03:08:25;13.70;99.90
9157;DHT22;4613;48.392;9.998;2023-05-10T03:20:58;13.80;99.90
9157;DHT22;4613;48.392;9.998;2023-05-10T03:24:15;13.90;99.90
9157;DHT22;4613;48.392;9.998;2023-05-10T03:27:07;13.60;99.90
9157;DHT22;4613;48.392;9.998;2023-05-10T03:29:57;13.40;99.90
9157;DHT22;4613;48.392;9.998;2023-05-10T03:32:47;13.50;99.90
9157;DHT22;4613;48.392;9.998;2023-05-10T03:35:39;13.50;99.90
9157;DHT22;4613;48.392;9.998;2023-05-10T03:38:29;13.30;99.90
9157;DHT22;4613;48.392;9.998;2023-05-10T03:41:19;13.50;99.90
9157;DHT22;4613;48.392;9.998;2023-05-10T03:44:10;13.30;99.90
9157;DHT22;4613;48.392;9.998;2023-05-10T03:47:00;13.40;99.90
9157;DHT22;4613;48.392;9.998;2023-05-10T03:49:49;13.20;99.90
9157;DHT22;4613;48.392;9.998;2023-05-10T03:52:38;13.00;99.90
9157;DHT22;4613;48.392;9.998;2023-05-10T03:55:28;13.30;99.90
9157;DHT22;4613;48.392;9.998;2023-05-10T03:58:19;13.40;99.90
9157;DHT22;4613;48.392;9.998;2023-05-10T04:01:08;13.50;99.90
9157;DHT22;4613;48.392;9.998;2023-05-10T04:03:58;13.50;99.90
9157;DHT22;4613;48.392;9.998;2023-05-10T04:06:47;13.60;99.90
9157;DHT22;4613;48.392;9.998;2023-05-10T04:09:36;13.50;99.90
9157;DHT22;4613;48.392;9.998;2023-05-10T04:12:25;13.40;99.90
9157;DHT22;4613;48.392;9.998;2023-05-10T04:15:15;13.30;99.90
9157;DHT22;4613;48.392;9.998;2023-05-10T04:18:04;13.30;99.90
9157;DHT22;4613;48.392;9.998;2023-05-10T04:20:54;13.40;99.90
9157;DHT22;4613;48.392;9.998;2023-05-10T04:23:43;13.30;99.90
9157;DHT22;4613;48.392;9.998;2023-05-10T04:26:32;13.30;99.90
9157;DHT22;4613;48.392;9.998;2023-05-10T04:29:21;13.30;99.90
9157;DHT22;4613;48.392;9.998;2023-05-10T04:32:11;13.20;99.90
9157;DHT22;4613;48.392;9.998;2023-05-10T04:35:00;13.10;99.90
9157;DHT22;4613;48.392;9.998;2023-05-10T04:37:52;13.30;99.90
9157;DHT22;4613;48.392;9.998;2023-05-10T04:40:41;13.10;99.90
9157;DHT22;4613;48.392;9.998;2023-05-10T04:43:30;13.00;99.90
9157;DHT22;4613;48.392;9.998;2023-05-10T04:46:19;13.20;99.90
9157;DHT22;4613;48.392;9.998;2023-05-10T04:49:08;13.30;99.90
9157;DHT22;4613;48.392;9.998;2023-05-10T04:51:58;12.90;99.90
9157;DHT22;4613;48.392;9.998;2023-05-10T04:54:48;12.90;99.90
9157;DHT22;4613;48.392;9.998;2023-05-10T04:57:38;13.00;99.90
9157;DHT22;4613;48.392;9.998;2023-05-10T05:00:27;13.00;99.90
9157;DHT22;4613;48.392;9.998;2023-05-10T05:03:16;12.90;99.90
9157;DHT22;4613;48.392;9.998;2023-05-10T05:06:06;12.90;99.90
9157;DHT22;4613;48.392;9.998;2023-05-10T05:08:55;13.00;99.90
9157;DHT22;4613;48.392;9.998;2023-05-10T05:11:44;12.90;99.90
9157;DHT22;4613;48.392;9.998;2023-05-10T05:14:33;13.10;99.90
9157;DHT22;4613;48.392;9.998;2023-05-10T05:17:22;13.20;99.90
9157;DHT22;4613;48.392;9.998;2023-05-10T05:20:11;13.50;99.90
9157;DHT22;4613;48.392;9.998;2023-05-10T05:23:03;13.20;99.90
9157;DHT22;4613;48.392;9.998;2023-05-10T05:25:53;13.20;99.90
9157;DHT22;4613;48.392;9.998;2023-05-10T05:28:42;13.10;99.90
9157;DHT22;4613;48.392;9.998;2023-05-10T05:31:31;13.20;99.90
9157;DHT22;4613;48.392;9.998;2023-05-10T05:34:20;13.10;99.90
9157;DHT22;4613;48.392;9.998;2023-05-10T05:37:16;13.20;99.90
9157;DHT22;4613;48.392;9.998;2023-05-10T05:40:06;13.20;99.90
9157;DHT22;4613;48.392;9.998;2023-05-10T05:42:55;13.20;99.90
9157;DHT22;4613;48.392;9.998;2023-05-10T05:45:44;13.10;99.90
9157;DHT22;4613;48.392;9.998;2023-05-10T05:48:33;13.10;99.90
9157;DHT22;4613;48.392;9.998;2023-05-10T05:51:23;13.10;99.90
9157;DHT22;4613;48.392;9.998;2023-05-10T05:54:12;12.80;99.90
9157;DHT22;4613;48.392;9.998;2023-05-10T05:57:01;12.90;99.90
9157;DHT22;4613;48.392;9.998;2023-05-10T05:59:51;12.70;99.90
9157;DHT22;4613;48.392;9.998;2023-05-10T06:02:40;12.90;99.90
9157;DHT22;4613;48.392;9.998;2023-05-10T06:05:30;13.10;99.90
9157;DHT22;4613;48.392;9.998;2023-05-10T06:08:19;13.00;99.90
9157;DHT22;4613;48.392;9.998;2023-05-10T06:11:10;13.30;99.90
9157;DHT22;4613;48.392;9.998;2023-05-10T06:13:59;13.10;99.90
9157;DHT22;4613;48.392;9.998;2023-05-10T06:16:49;13.30;99.90
9157;DHT22;4613;48.392;9.998;2023-05-10T06:19:38;13.10;99.90
9157;DHT22;4613;48.392;9.998;2023-05-10T06:22:27;13.30;99.90
9157;DHT22;4613;48.392;9.998;2023-05-10T06:25:16;13.40;99.90
9157;DHT22;4613;48.392;9.998;2023-05-10T06:28:07;13.30;99.90
9157;DHT22;4613;48.392;9.998;2023-05-10T06:30:56;13.40;99.90
9157;DHT22;4613;48.392;9.998;2023-05-10T06:33:46;13.40;99.90
9157;DHT22;4613;48.392;9.998;2023-05-10T06:36:35;13.40;99.90
9157;DHT22;4613;48.392;9.998;2023-05-10T06:39:24;13.80;99.90
9157;DHT22;4613;48.392;9.998;2023-05-10T06:42:13;13.80;99.90
9157;DHT22;4613;48.392;9.998;2023-05-10T06:45:03;13.70;99.90
9157;DHT22;4613;48.392;9.998;2023-05-10T06:47:53;13.60;99.90
9157;DHT22;4613;48.392;9.998;2023-05-10T06:50:42;13.70;99.90
9157;DHT22;4613;48.392;9.998;2023-05-10T06:53:32;13.80;99.90
9157;DHT22;4613;48.392;9.998;2023-05-10T06:56:21;13.70;99.90
9157;DHT22;4613;48.392;9.998;2023-05-10T06:59:10;13.50;99.90
9157;DHT22;4613;48.392;9.998;2023-05-10T07:02:00;13.70;99.90
9157;DHT22;4613;48.392;9.998;2023-05-10T07:04:49;13.50;99.90
9157;DHT22;4613;48.392;9.998;2023-05-10T07:07:39;13.60;99.90
9157;DHT22;4613;48.392;9.998;2023-05-10T07:10:28;14.00;99.90
9157;DHT22;4613;48.392;9.998;2023-05-10T07:13:18;14.00;99.90
9157;DHT22;4613;48.392;9.998;2023-05-10T07:16:07;13.80;99.90
9157;DHT22;4613;48.392;9.998;2023-05-10T07:18:56;13.50;99.90
9157;DHT22;4613;48.392;9.998;2023-05-10T07:21:46;14.00;99.90
9157;DHT22;4613;48.392;9.998;2023-05-10T07:24:34;14.00;99.90
9157;DHT22;4613;48.392;9.998;2023-05-10T07:27:24;13.60;99.90
9157;DHT22;4613;48.392;9.998;2023-05-10T07:30:13;13.70;99.90
9157;DHT22;4613;48.392;9.998;2023-05-10T07:33:02;13.50;99.90
9157;DHT22;4613;48.392;9.998;2023-05-10T07:35:52;13.60;99.90
9157;DHT22;4613;48.392;9.998;2023-05-10T07:38:41;13.70;99.90
9157;DHT22;4613;48.392;9.998;2023-05-10T07:41:31;13.70;99.90
9157;DHT22;4613;48.392;9.998;2023-05-10T07:44:20;13.80;99.90
9157;DHT22;4613;48.392;9.998;2023-05-10T07:47:10;13.90;99.90
9157;DHT22;4613;48.392;9.998;2023-05-10T07:50:00;14.00;99.90
9157;DHT22;4613;48.392;9.998;2023-05-10T07:52:50;14.10;99.90
9157;DHT22;4613;48.392;9.998;2023-05-10T07:55:39;14.20;99.90
9157;DHT22;4613;48.392;9.998;2023-05-10T07:58:32;14.20;99.90
9157;DHT22;4613;48.392;9.998;2023-05-10T08:01:21;14.30;99.90
9157;DHT22;4613;48.392;9.998;2023-05-10T08:04:11;14.40;99.90
9157;DHT22;4613;48.392;9.998;2023-05-10T08:07:00;14.20;99.90
9157;DHT22;4613;48.392;9.998;2023-05-10T08:09:50;14.50;99.90
9157;DHT22;4613;48.392;9.998;2023-05-10T08:12:40;14.60;99.90
9157;DHT22;4613;48.392;9.998;2023-05-10T08:15:29;14.70;99.90
9157;DHT22;4613;48.392;9.998;2023-05-10T08:18:19;14.80;99.90
9157;DHT22;4613;48.392;9.998;2023-05-10T08:21:08;15.00;99.90
9157;DHT22;4613;48.392;9.998;2023-05-10T08:23:57;14.80;99.90
9157;DHT22;4613;48.392;9.998;2023-05-10T08:26:46;14.60;99.90
9157;DHT22;4613;48.392;9.998;2023-05-10T08:29:37;14.70;99.90
9157;DHT22;4613;48.392;9.998;2023-05-10T08:32:26;14.90;99.90
9157;DHT22;4613;48.392;9.998;2023-05-10T08:35:16;14.70;99.90
9157;DHT22;4613;48.392;9.998;2023-05-10T08:38:05;14.80;99.90
9157;DHT22;4613;48.392;9.998;2023-05-10T08:40:55;15.00;99.90
9157;DHT22;4613;48.392;9.998;2023-05-10T08:43:47;15.00;99.90
9157;DHT22;4613;48.392;9.998;2023-05-10T08:46:37;15.20;99.90
9157;DHT22;4613;48.392;9.998;2023-05-10T08:49:32;15.40;99.90
9157;DHT22;4613;48.392;9.998;2023-05-10T08:52:24;15.60;99.90
9157;DHT22;4613;48.392;9.998;2023-05-10T08:55:15;15.40;99.90
9157;DHT22;4613;48.392;9.998;2023-05-10T08:58:06;15.60;99.90
9157;DHT22;4613;48.392;9.998;2023-05-10T09:00:56;16.00;99.90
9157;DHT22;4613;48.392;9.998;2023-05-10T09:03:46;15.90;99.90
9157;DHT22;4613;48.392;9.998;2023-05-10T09:06:36;16.20;99.90
9157;DHT22;4613;48.392;9.998;2023-05-10T09:09:27;16.40;99.90
9157;DHT22;4613;48.392;9.998;2023-05-10T09:12:17;16.50;99.90
9157;DHT22;4613;48.392;9.998;2023-05-10T09:15:07;16.20;99.90
9157;DHT22;4613;48.392;9.998;2023-05-10T09:17:58;16.00;99.90
9157;DHT22;4613;48.392;9.998;2023-05-10T09:20:51;15.90;99.90
9157;DHT22;4613;48.392;9.998;2023-05-10T09:23:44;15.80;99.90
9157;DHT22;4613;48.392;9.998;2023-05-10T09:26:35;15.90;99.90
9157;DHT22;4613;48.392;9.998;2023-05-10T09:29:25;16.00;99.90
9157;DHT22;4613;48.392;9.998;2023-05-10T09:32:14;16.00;99.90
9157;DHT22;4613;48.392;9.998;2023-05-10T09:35:11;16.20;99.90
9157;DHT22;4613;48.392;9.998;2023-05-10T09:38:03;16.10;99.90
9157;DHT22;4613;48.392;9.998;2023-05-10T09:40:53;15.90;99.90
9157;DHT22;4613;48.392;9.998;2023-05-10T09:43:43;16.10;99.90
9157;DHT22;4613;48.392;9.998;2023-05-10T09:46:35;16.30;99.90
9157;DHT22;4613;48.392;9.998;2023-05-10T09:49:25;16.20;99.90
9157;DHT22;4613;48.392;9.998;2023-05-10T09:52:15;16.10;99.90
9157;DHT22;4613;48.392;9.998;2023-05-10T09:55:04;16.20;99.90
9157;DHT22;4613;48.392;9.998;2023-05-10T09:58:01;16.20;99.90
9157;DHT22;4613;48.392;9.998;2023-05-10T10:00:51;16.30;99.90
9157;DHT22;4613;48.392;9.998;2023-05-10T10:03:42;16.20;99.90
9157;DHT22;4613;48.392;9.998;2023-05-10T10:06:36;16.10;99.90
9157;DHT22;4613;48.392;9.998;2023-05-10T10:09:26;16.20;99.90
9157;DHT22;4613;48.392;9.998;2023-05-10T10:12:16;16.20;99.90
9157;DHT22;4613;48.392;9.998;2023-05-10T10:15:07;16.30;99.90
9157;DHT22;4613;48.392;9.998;2023-05-10T10:17:56;16.40;99.90
9157;DHT22;4613;48.392;9.998;2023-05-10T10:20:46;16.60;99.90
9157;DHT22;4613;48.392;9.998;2023-05-10T10:23:35;16.70;99.90
9157;DHT22;4613;48.392;9.998;2023-05-10T10:26:25;16.70;99.90
9157;DHT22;4613;48.392;9.998;2023-05-10T10:29:36;16.60;99.90
9157;DHT22;4613;48.392;9.998;2023-05-10T10:33:01;16.50;99.90
9157;DHT22;4613;48.392;9.998;2023-05-10T10:35:59;16.40;99.90
9157;DHT22;4613;48.392;9.998;2023-05-10T10:41:55;16.40;99.90
9157;DHT22;4613;48.392;9.998;2023-05-10T10:44:45;16.50;99.90
9157;DHT22;4613;48.392;9.998;2023-05-10T10:47:36;16.60;99.90
9157;DHT22;4613;48.392;9.998;2023-05-10T10:50:26;16.60;99.90
9157;DHT22;4613;48.392;9.998;2023-05-10T10:53:15;16.60;99.90
9157;DHT22;4613;48.392;9.998;2023-05-10T10:56:07;16.30;99.90
9157;DHT22;4613;48.392;9.998;2023-05-10T10:58:59;16.50;99.90
9157;DHT22;4613;48.392;9.998;2023-05-10T11:01:51;16.50;99.90
9157;DHT22;4613;48.392;9.998;2023-05-10T11:04:44;16.40;99.90
9157;DHT22;4613;48.392;9.998;2023-05-10T11:07:35;16.50;99.90
9157;DHT22;4613;48.392;9.998;2023-05-10T11:10:26;16.20;99.90
9157;DHT22;4613;48.392;9.998;2023-05-10T11:13:15;16.40;99.90
9157;DHT22;4613;48.392;9.998;2023-05-10T11:16:15;16.30;99.90
9157;DHT22;4613;48.392;9.998;2023-05-10T11:19:07;16.20;99.90
9157;DHT22;4613;48.392;9.998;2023-05-10T11:24:57;16.30;99.90
9157;DHT22;4613;48.392;9.998;2023-05-10T11:27:48;16.00;99.90
9157;DHT22;4613;48.392;9.998;2023-05-10T11:30:42;16.30;99.90
9157;DHT22;4613;48.392;9.998;2023-05-10T11:33:42;16.60;99.90
9157;DHT22;4613;48.392;9.998;2023-05-10T11:36:35;16.60;99.90
9157;DHT22;4613;48.392;9.998;2023-05-10T11:39:30;16.50;99.90
9157;DHT22;4613;48.392;9.998;2023-05-10T11:42:19;16.50;99.90
9157;DHT22;4613;48.392;9.998;2023-05-10T11:45:10;16.60;99.90
9157;DHT22;4613;48.392;9.998;2023-05-10T11:48:01;16.50;99.90
9157;DHT22;4613;48.392;9.998;2023-05-10T11:50:51;16.20;99.90
9157;DHT22;4613;48.392;9.998;2023-05-10T11:53:42;16.30;99.90
9157;DHT22;4613;48.392;9.998;2023-05-10T11:56:32;15.80;99.90
9157;DHT22;4613;48.392;9.998;2023-05-10T11:59:21;15.70;99.90
9157;DHT22;4613;48.392;9.998;2023-05-10T12:02:12;15.50;99.90
9157;DHT22;4613;48.392;9.998;2023-05-10T12:05:02;15.30;99.90
9157;DHT22;4613;48.392;9.998;2023-05-10T12:07:52;15.20;99.90
9157;DHT22;4613;48.392;9.998;2023-05-10T12:10:41;14.70;99.90
9157;DHT22;4613;48.392;9.998;2023-05-10T12:13:31;14.60;99.90
9157;DHT22;4613;48.392;9.998;2023-05-10T12:16:22;14.80;99.90
9157;DHT22;4613;48.392;9.998;2023-05-10T12:19:11;14.80;99.90
9157;DHT22;4613;48.392;9.998;2023-05-10T12:22:04;14.70;99.90
9157;DHT22;4613;48.392;9.998;2023-05-10T12:24:54;14.50;99.90
9157;DHT22;4613;48.392;9.998;2023-05-10T12:27:54;14.40;99.90
9157;DHT22;4613;48.392;9.998;2023-05-10T12:30:44;14.40;99.90
9157;DHT22;4613;48.392;9.998;2023-05-10T12:33:40;14.50;99.90
9157;DHT22;4613;48.392;9.998;2023-05-10T12:36:31;14.40;99.90
9157;DHT22;4613;48.392;9.998;2023-05-10T12:39:20;14.40;99.90
9157;DHT22;4613;48.392;9.998;2023-05-10T12:42:10;14.20;99.90
9157;DHT22;4613;48.392;9.998;2023-05-10T12:44:59;14.00;99.90
9157;DHT22;4613;48.392;9.998;2023-05-10T12:47:48;13.80;99.90
9157;DHT22;4613;48.392;9.998;2023-05-10T12:50:37;13.90;99.90
9157;DHT22;4613;48.392;9.998;2023-05-10T12:53:28;14.00;99.90
9157;DHT22;4613;48.392;9.998;2023-05-10T12:56:17;14.40;99.90
9157;DHT22;4613;48.392;9.998;2023-05-10T12:59:06;14.50;99.90
9157;DHT22;4613;48.392;9.998;2023-05-10T13:01:57;14.60;99.90
9157;DHT22;4613;48.392;9.998;2023-05-10T13:04:46;14.50;99.90
9157;DHT22;4613;48.392;9.998;2023-05-10T13:07:36;14.60;99.90
9157;DHT22;4613;48.392;9.998;2023-05-10T13:10:26;14.70;99.90
9157;DHT22;4613;48.392;9.998;2023-05-10T13:13:15;15.10;99.90
9157;DHT22;4613;48.392;9.998;2023-05-10T13:16:05;14.50;99.90
9157;DHT22;4613;48.392;9.998;2023-05-10T13:18:54;14.80;99.90
9157;DHT22;4613;48.392;9.998;2023-05-10T13:21:44;14.40;99.90
9157;DHT22;4613;48.392;9.998;2023-05-10T13:24:33;13.90;99.90
9157;DHT22;4613;48.392;9.998;2023-05-10T13:27:23;13.80;99.90
9157;DHT22;4613;48.392;9.998;2023-05-10T13:30:12;13.90;99.90
9157;DHT22;4613;48.392;9.998;2023-05-10T13:33:01;13.90;99.90
9157;DHT22;4613;48.392;9.998;2023-05-10T13:35:50;13.70;99.90
9157;DHT22;4613;48.392;9.998;2023-05-10T13:38:41;13.60;99.90
9157;DHT22;4613;48.392;9.998;2023-05-10T13:41:31;14.00;99.90
9157;DHT22;4613;48.392;9.998;2023-05-10T13:44:20;14.30;99.90
9157;DHT22;4613;48.392;9.998;2023-05-10T13:47:09;14.30;99.90
9157;DHT22;4613;48.392;9.998;2023-05-10T13:49:59;14.10;99.90
9157;DHT22;4613;48.392;9.998;2023-05-10T13:52:50;14.20;99.90
9157;DHT22;4613;48.392;9.998;2023-05-10T13:55:39;13.60;99.90
9157;DHT22;4613;48.392;9.998;2023-05-10T13:58:29;13.80;99.90
9157;DHT22;4613;48.392;9.998;2023-05-10T14:01:18;14.10;99.90
9157;DHT22;4613;48.392;9.998;2023-05-10T14:04:08;14.00;99.90
9157;DHT22;4613;48.392;9.998;2023-05-10T14:07:01;13.90;99.90
9157;DHT22;4613;48.392;9.998;2023-05-10T14:09:50;14.20;99.90
9157;DHT22;4613;48.392;9.998;2023-05-10T14:12:39;14.30;99.90
9157;DHT22;4613;48.392;9.998;2023-05-10T14:15:28;14.30;99.90
9157;DHT22;4613;48.392;9.998;2023-05-10T14:18:18;14.40;99.90
9157;DHT22;4613;48.392;9.998;2023-05-10T14:21:08;14.30;99.90
9157;DHT22;4613;48.392;9.998;2023-05-10T14:24:01;14.40;99.90
9157;DHT22;4613;48.392;9.998;2023-05-10T14:26:50;14.40;99.90
9157;DHT22;4613;48.392;9.998;2023-05-10T14:29:42;14.40;99.90
9157;DHT22;4613;48.392;9.998;2023-05-10T14:32:32;13.80;99.90
9157;DHT22;4613;48.392;9.998;2023-05-10T14:35:21;13.10;99.90
9157;DHT22;4613;48.392;9.998;2023-05-10T14:38:10;12.70;99.90
9157;DHT22;4613;48.392;9.998;2023-05-10T14:41:00;12.60;99.90
9157;DHT22;4613;48.392;9.998;2023-05-10T14:43:49;12.90;99.90
9157;DHT22;4613;48.392;9.998;2023-05-10T14:46:42;12.80;99.90
9157;DHT22;4613;48.392;9.998;2023-05-10T14:49:31;13.00;99.90
9157;DHT22;4613;48.392;9.998;2023-05-10T14:52:20;13.40;99.90
9157;DHT22;4613;48.392;9.998;2023-05-10T14:55:09;13.50;99.90
9157;DHT22;4613;48.392;9.998;2023-05-10T14:57:59;13.40;99.90
9157;DHT22;4613;48.392;9.998;2023-05-10T15:00:48;13.10;99.90
9157;DHT22;4613;48.392;9.998;2023-05-10T15:03:37;12.90;99.90
9157;DHT22;4613;48.392;9.998;2023-05-10T15:06:31;13.20;99.90
9157;DHT22;4613;48.392;9.998;2023-05-10T15:09:21;13.30;99.90
9157;DHT22;4613;48.392;9.998;2023-05-10T15:12:10;13.50;99.90
9157;DHT22;4613;48.392;9.998;2023-05-10T15:15:00;13.30;99.90
9157;DHT22;4613;48.392;9.998;2023-05-10T15:17:49;13.60;99.90
9157;DHT22;4613;48.392;9.998;2023-05-10T15:20:38;13.50;99.90
9157;DHT22;4613;48.392;9.998;2023-05-10T15:23:27;13.40;99.90
9157;DHT22;4613;48.392;9.998;2023-05-10T15:26:18;13.50;99.90
9157;DHT22;4613;48.392;9.998;2023-05-10T15:29:07;13.40;99.90
9157;DHT22;4613;48.392;9.998;2023-05-10T15:31:56;13.70;99.90
9157;DHT22;4613;48.392;9.998;2023-05-10T15:34:45;13.50;99.90
9157;DHT22;4613;48.392;9.998;2023-05-10T15:37:35;13.10;99.90
9157;DHT22;4613;48.392;9.998;2023-05-10T15:40:24;12.90;99.90
9157;DHT22;4613;48.392;9.998;2023-05-10T15:43:14;13.00;99.90
9157;DHT22;4613;48.392;9.998;2023-05-10T15:46:04;13.00;99.90
9157;DHT22;4613;48.392;9.998;2023-05-10T15:48:55;13.10;99.90
9157;DHT22;4613;48.392;9.998;2023-05-10T15:51:46;13.10;99.90
9157;DHT22;4613;48.392;9.998;2023-05-10T15:54:35;13.00;99.90
9157;DHT22;4613;48.392;9.998;2023-05-10T15:57:25;13.00;99.90
9157;DHT22;4613;48.392;9.998;2023-05-10T16:00:14;13.10;99.90
9157;DHT22;4613;48.392;9.998;2023-05-10T16:03:04;13.30;99.90
9157;DHT22;4613;48.392;9.998;2023-05-10T16:05:53;13.60;99.90
9157;DHT22;4613;48.392;9.998;2023-05-10T16:08:42;13.40;99.90
9157;DHT22;4613;48.392;9.998;2023-05-10T16:11:32;13.20;99.90
9157;DHT22;4613;48.392;9.998;2023-05-10T16:14:25;13.20;99.90
9157;DHT22;4613;48.392;9.998;2023-05-10T16:17:16;13.30;99.90
9157;DHT22;4613;48.392;9.998;2023-05-10T16:20:08;13.20;99.90
9157;DHT22;4613;48.392;9.998;2023-05-10T16:23:03;13.20;99.90
9157;DHT22;4613;48.392;9.998;2023-05-10T16:25:53;13.10;99.90
9157;DHT22;4613;48.392;9.998;2023-05-10T16:28:42;13.10;99.90
9157;DHT22;4613;48.392;9.998;2023-05-10T16:31:32;13.10;99.90
9157;DHT22;4613;48.392;9.998;2023-05-10T16:34:22;13.10;99.90
9157;DHT22;4613;48.392;9.998;2023-05-10T16:37:13;13.00;99.90
9157;DHT22;4613;48.392;9.998;2023-05-10T16:40:03;13.00;99.90
9157;DHT22;4613;48.392;9.998;2023-05-10T16:42:52;12.90;99.90
9157;DHT22;4613;48.392;9.998;2023-05-10T16:45:42;12.80;99.90
9157;DHT22;4613;48.392;9.998;2023-05-10T16:48:31;12.90;99.90
9157;DHT22;4613;48.392;9.998;2023-05-10T16:51:21;13.10;99.90
9157;DHT22;4613;48.392;9.998;2023-05-10T16:54:10;13.00;99.90
9157;DHT22;4613;48.392;9.998;2023-05-10T16:56:59;12.90;99.90
9157;DHT22;4613;48.392;9.998;2023-05-10T16:59:50;12.70;99.90
9157;DHT22;4613;48.392;9.998;2023-05-10T17:02:42;13.10;99.90
9157;DHT22;4613;48.392;9.998;2023-05-10T17:05:31;13.00;99.90
9157;DHT22;4613;48.392;9.998;2023-05-10T17:08:21;13.00;99.90
9157;DHT22;4613;48.392;9.998;2023-05-10T17:11:10;13.10;99.90
9157;DHT22;4613;48.392;9.998;2023-05-10T17:14:00;13.10;99.90
9157;DHT22;4613;48.392;9.998;2023-05-10T17:16:49;13.20;99.90
9157;DHT22;4613;48.392;9.998;2023-05-10T17:19:44;13.50;99.90
9157;DHT22;4613;48.392;9.998;2023-05-10T17:22:33;13.20;99.90
9157;DHT22;4613;48.392;9.998;2023-05-10T17:25:22;12.90;99.90
9157;DHT22;4613;48.392;9.998;2023-05-10T17:28:11;12.90;99.90
9157;DHT22;4613;48.392;9.998;2023-05-10T17:31:01;12.90;99.90
9157;DHT22;4613;48.392;9.998;2023-05-10T17:33:50;12.90;99.90
9157;DHT22;4613;48.392;9.998;2023-05-10T17:36:40;12.70;99.90
9157;DHT22;4613;48.392;9.998;2023-05-10T17:39:29;12.70;99.90
9157;DHT22;4613;48.392;9.998;2023-05-10T17:42:19;12.60;99.90
9157;DHT22;4613;48.392;9.998;2023-05-10T17:45:09;12.70;99.90
9157;DHT22;4613;48.392;9.998;2023-05-10T17:47:58;12.70;99.90
9157;DHT22;4613;48.392;9.998;2023-05-10T17:50:49;12.70;99.90
9157;DHT22;4613;48.392;9.998;2023-05-10T17:53:38;12.70;99.90
9157;DHT22;4613;48.392;9.998;2023-05-10T17:56:28;12.90;99.90
9157;DHT22;4613;48.392;9.998;2023-05-10T17:59:18;13.00;99.90
9157;DHT22;4613;48.392;9.998;2023-05-10T18:02:07;12.90;99.90
9157;DHT22;4613;48.392;9.998;2023-05-10T18:04:56;12.90;99.90
9157;DHT22;4613;48.392;9.998;2023-05-10T18:07:46;13.00;99.90
9157;DHT22;4613;48.392;9.998;2023-05-10T18:10:35;12.70;99.90
9157;DHT22;4613;48.392;9.998;2023-05-10T18:13:25;12.50;99.90
9157;DHT22;4613;48.392;9.998;2023-05-10T18:16:15;12.40;99.90
9157;DHT22;4613;48.392;9.998;2023-05-10T18:19:04;12.40;99.90
9157;DHT22;4613;48.392;9.998;2023-05-10T18:21:53;12.30;99.90
9157;DHT22;4613;48.392;9.998;2023-05-10T18:24:42;12.30;99.90
9157;DHT22;4613;48.392;9.998;2023-05-10T18:27:31;12.10;99.90
9157;DHT22;4613;48.392;9.998;2023-05-10T18:30:21;12.10;99.90
9157;DHT22;4613;48.392;9.998;2023-05-10T18:33:11;12.20;99.90
9157;DHT22;4613;48.392;9.998;2023-05-10T18:36:00;12.20;99.90
9157;DHT22;4613;48.392;9.998;2023-05-10T18:38:50;12.20;99.90
9157;DHT22;4613;48.392;9.998;2023-05-10T18:41:39;12.10;99.90
9157;DHT22;4613;48.392;9.998;2023-05-10T18:44:29;12.30;99.90
9157;DHT22;4613;48.392;9.998;2023-05-10T18:47:18;12.40;99.90
9157;DHT22;4613;48.392;9.998;2023-05-10T18:50:08;12.20;99.90
9157;DHT22;4613;48.392;9.998;2023-05-10T18:52:58;12.00;99.90
9157;DHT22;4613;48.392;9.998;2023-05-10T18:55:55;12.10;99.90
9157;DHT22;4613;48.392;9.998;2023-05-10T18:58:45;12.50;99.90